メインページ
METAR-TAF:

METAR-TAF

空港 :

カーブル, アフガニスタン

カーブル国際空港

緯度: 34-38N, 経度: 069-12E, 海抜: 1789m

現時点の気象観測

当レポートは1時間10分前の02:50(UTC)に作成
西/北西の風 2kt
気温 18°C
湿度 30%
気圧 1018 hPa
視程10km以上
1,500メートル以下は雲なし、積乱雲なし

METAR: OAKB 230250Z 29002KT CAVOK 18/00 Q1018 NOSIG RMK A3008 BLU BLU

時間: 08:30 (04:00 UTC)

予報

当レポートは4時間55分前の23:05(UTC)に作成
予報は23日の 00時(UTC)から 23日の 24時(UTC)まで有効
変向風 2kt
視程10km以上
1,500メートル以下は雲なし、積乱雲なし
23日の 02時(UTC)から 23日の 05時(UTC)まで一時的に
視程: 5000m
煙霧
23日の 05時(UTC)から 23日の 07時(UTC)まで徐々に
高度8000ftの雲はほとんどない
23日の 10時(UTC)から 23日の 12時(UTC)まで徐々に
北/北東の風 12kt
高度8000ftの雲は散在している
23日の 16時(UTC)から 23日の 18時(UTC)まで徐々に
変向風 2kt
視程10km以上
1,500メートル以下は雲なし、積乱雲なし

TAF: OAKB 222305Z 2300/2324 VRB02KT CAVOK TEMPO 2302/2305 5000 HZ BECMG 2305/2307 FEW080 BECMG 2310/2312 02012KT SCT080 BECMG 2316/2318 VRB02KT CAVOK

4,000以上の空港の気象観測と天気予報(METAR報とTAF報)

利用可能な観測所は地図上に黄色い丸と赤い丸で示す。

丸の上にカーソルを重ねると観測所名を参照できる。

次にクリックすると気象観測と天気予報を参照できる。

マップの切り替え:黒色「×」印の緑ボタンをクリックして拡大、「-」印の緑ボタンをクリックして縮小、緑色の三角印をクリックして隣りの地図に切り替え


METAR-TAF: